Time;durP1;ratioP1;P1;durP2;ratioP2;P2;SDS_P1;SDS_P2;PMS_P1;PMS_P2;Temp;Humidity;BMP_temperature;BMP_pressure;BME280_temperature;BME280_humidity;BME280_pressure;Samples;Min_cycle;Max_cycle;Signal;HPM_P1;HPM_P2
2022/05/30 00:01:04;;;;;;;;;4.33;3.33;;;;;12.14;62.46;100824.25;5060263;28;45296;-74
2022/05/30 00:03:29;;;;;;;;;2.67;2.67;;;;;11.98;62.08;100804.72;5060192;28;45580;-75
2022/05/30 00:05:55;;;;;;;;;3.67;3.00;;;;;12.02;62.35;100828.34;5078490;28;47155;-75
2022/05/30 00:08:20;;;;;;;;;2.67;2.67;;;;;11.80;62.58;100805.09;5078843;28;45381;-75
2022/05/30 00:10:46;;;;;;;;;2.67;2.67;;;;;11.84;62.77;100822.34;5080338;27;45341;-74
2022/05/30 00:13:12;;;;;;;;;3.00;3.00;;;;;11.73;63.09;100817.44;5078792;28;46473;-75
2022/05/30 00:15:39;;;;;;;;;5.33;4.00;;;;;11.67;63.33;100819.00;5078835;28;47692;-74
2022/05/30 00:18:04;;;;;;;;;2.67;2.00;;;;;11.60;63.36;100815.41;5080150;28;45373;-74
2022/05/30 00:20:30;;;;;;;;;2.00;2.00;;;;;11.61;63.49;100825.88;5080030;28;45318;-75
2022/05/30 00:22:55;;;;;;;;;3.67;3.67;;;;;11.56;63.40;100822.09;5080187;27;45319;-74
2022/05/30 00:25:20;;;;;;;;;3.00;3.00;;;;;11.40;63.88;100809.75;5080148;27;45348;-75
2022/05/30 00:27:46;;;;;;;;;4.00;4.00;;;;;11.38;63.88;100819.75;5080186;27;45275;-75
2022/05/30 00:30:13;;;;;;;;;2.67;2.67;;;;;11.40;64.03;100823.88;5080263;28;45255;-75
2022/05/30 00:32:39;;;;;;;;;2.00;2.00;;;;;11.35;64.39;100811.09;5079876;27;45492;-74
2022/05/30 00:35:05;;;;;;;;;2.33;2.33;;;;;11.32;64.02;100813.28;5079714;28;46283;-75
2022/05/30 00:37:31;;;;;;;;;3.00;3.00;;;;;11.21;64.39;100795.91;5078570;28;45255;-74
2022/05/30 00:39:56;;;;;;;;;3.00;3.00;;;;;11.24;64.50;100812.34;5078431;28;45196;-75
2022/05/30 00:42:24;;;;;;;;;4.00;4.00;;;;;11.23;64.68;100815.19;5079744;28;45366;-75
2022/05/30 00:44:50;;;;;;;;;3.00;3.00;;;;;11.17;64.80;100806.09;5095508;27;47626;-74
2022/05/30 00:47:17;;;;;;;;;3.67;3.67;;;;;11.10;64.69;100805.13;5079728;28;45303;-75
2022/05/30 00:49:45;;;;;;;;;2.33;2.33;;;;;11.08;64.87;100802.63;5078225;28;45291;-74
2022/05/30 00:52:17;;;;;;;;;4.00;4.00;;;;;10.90;65.21;100778.16;5079625;27;45473;-75
2022/05/30 00:54:54;;;;;;;;;4.67;4.67;;;;;10.92;65.58;100787.59;5079576;28;45404;-75
2022/05/30 00:57:22;;;;;;;;;3.00;3.00;;;;;10.96;65.90;100798.72;5078047;28;45326;-75
2022/05/30 00:59:49;;;;;;;;;3.00;3.00;;;;;10.84;65.79;100783.16;5079864;27;45416;-74
2022/05/30 01:02:15;;;;;;;;;3.00;3.00;;;;;10.82;66.02;100777.22;5078196;28;45485;-74
2022/05/30 01:07:24;;;;;;;;;3.00;3.00;;;;;10.83;66.24;100780.66;5079245;28;45398;-74
2022/05/30 01:09:54;;;;;;;;;4.00;3.00;;;;;10.78;66.41;100775.91;5079663;27;45378;-75
2022/05/30 01:12:38;;;;;;;;;3.00;3.00;;;;;10.81;66.66;100788.00;5079346;27;45220;-75
2022/05/30 01:15:05;;;;;;;;;6.00;4.00;;;;;10.79;66.66;100780.22;5079392;27;45227;-75
2022/05/30 01:17:32;;;;;;;;;6.00;5.67;;;;;10.69;67.09;100763.66;5094949;27;45334;-75
2022/05/30 01:20:17;;;;;;;;;4.00;4.00;;;;;10.74;67.03;100769.25;5078021;28;45523;-75
2022/05/30 01:23:07;;;;;;;;;4.67;4.67;;;;;10.71;67.47;100772.25;5079288;27;45523;-74
2022/05/30 01:25:35;;;;;;;;;3.33;2.33;;;;;10.72;67.52;100774.75;5077670;28;47350;-74
2022/05/30 01:28:07;;;;;;;;;4.33;4.33;;;;;10.71;67.17;100774.91;5077805;28;45267;-74
2022/05/30 01:30:35;;;;;;;;;3.00;3.00;;;;;10.65;67.51;100765.81;5077898;28;45297;-75
2022/05/30 01:33:01;;;;;;;;;4.33;3.33;;;;;10.54;67.89;100752.94;5094903;27;47053;-74
2022/05/30 01:35:28;;;;;;;;;5.00;5.00;;;;;10.61;67.98;100769.84;5078920;27;46612;-75
2022/05/30 01:37:59;;;;;;;;;4.00;4.00;;;;;10.62;68.16;100765.34;5077827;28;45625;-75
2022/05/30 01:40:26;;;;;;;;;5.00;5.00;;;;;10.60;68.29;100762.88;5079098;27;45466;-74
2022/05/30 01:42:55;;;;;;;;;5.00;5.00;;;;;10.63;68.32;100767.84;5094488;27;46126;-75
2022/05/30 01:45:22;;;;;;;;;4.00;4.00;;;;;10.64;68.44;100776.63;5077699;28;47865;-75
2022/05/30 01:47:47;;;;;;;;;6.00;5.00;;;;;10.55;68.47;100743.94;5077594;28;45840;-75
2022/05/30 01:50:12;;;;;;;;;6.00;6.00;;;;;10.62;68.45;100768.81;5094707;27;45292;-74
2022/05/30 01:52:38;;;;;;;;;7.33;6.00;;;;;10.63;68.55;100769.66;5078931;28;45269;-75
2022/05/30 01:55:04;;;;;;;;;5.00;5.00;;;;;10.54;68.87;100744.97;5077579;28;48580;-74
2022/05/30 01:57:30;;;;;;;;;5.33;5.00;;;;;10.54;68.68;100750.28;5078044;28;45754;-75
2022/05/30 01:59:55;;;;;;;;;4.33;4.33;;;;;10.57;68.43;100752.59;5082708;27;45238;-75
2022/05/30 02:02:21;;;;;;;;;5.00;5.00;;;;;10.51;68.40;100753.28;5082405;27;45511;-74
2022/05/30 02:04:46;;;;;;;;;7.67;5.67;;;;;10.54;68.48;100759.06;5090533;27;45551;-75
2022/05/30 02:07:11;;;;;;;;;5.00;5.00;;;;;10.46;68.84;100762.59;5101319;27;45796;-74
2022/05/30 02:09:37;;;;;;;;;5.00;5.00;;;;;10.46;69.31;100762.59;5102970;27;45244;-75
2022/05/30 02:12:03;;;;;;;;;5.33;5.33;;;;;10.50;69.18;100775.53;5118305;27;47202;-74
2022/05/30 02:14:29;;;;;;;;;5.00;4.33;;;;;10.45;69.47;100768.06;5102486;27;46042;-74
2022/05/30 02:17:00;;;;;;;;;7.00;6.00;;;;;10.42;69.06;100763.88;5102725;27;45293;-75
2022/05/30 02:19:26;;;;;;;;;5.00;5.00;;;;;10.35;69.16;100750.50;5118338;27;45355;-75
2022/05/30 02:21:52;;;;;;;;;6.00;4.33;;;;;10.39;69.36;100764.25;5135562;27;46683;-74
2022/05/30 02:24:17;;;;;;;;;4.00;3.67;;;;;10.33;69.82;100755.13;5101109;27;46452;-75
2022/05/30 02:26:43;;;;;;;;;5.00;5.00;;;;;10.33;69.48;100760.44;5102297;27;45515;-75
2022/05/30 02:29:08;;;;;;;;;5.67;5.67;;;;;10.38;69.65;100765.25;5102577;27;45702;-74
2022/05/30 02:31:33;;;;;;;;;5.00;5.00;;;;;10.42;69.71;100768.41;5102218;27;45328;-74
2022/05/30 02:36:44;;;;;;;;;3.33;3.33;;;;;10.35;69.60;100763.78;5102182;27;45696;-74
2022/05/30 02:39:29;;;;;;;;;5.33;5.33;;;;;10.31;69.73;100753.66;5101030;27;45382;-74
2022/05/30 02:41:55;;;;;;;;;6.67;5.33;;;;;10.27;69.66;100749.69;5100451;27;46271;-74
2022/05/30 02:44:23;;;;;;;;;5.33;4.00;;;;;10.33;69.77;100764.94;5100599;27;48329;-75
2022/05/30 02:46:52;;;;;;;;;7.00;6.00;;;;;10.32;70.19;100773.91;5102112;27;45307;-75
2022/05/30 02:49:18;;;;;;;;;5.00;4.67;;;;;10.22;69.94;100764.31;5102033;27;45244;-74
2022/05/30 02:51:44;;;;;;;;;5.33;5.33;;;;;10.30;70.49;100778.56;5134783;27;46236;-75
2022/05/30 02:54:11;;;;;;;;;4.67;4.67;;;;;10.28;69.95;100767.28;5135094;27;47504;-74
2022/05/30 02:56:37;;;;;;;;;6.67;5.67;;;;;10.28;69.85;100775.25;5101762;27;45350;-75
2022/05/30 02:59:03;;;;;;;;;5.33;5.00;;;;;10.17;70.14;100756.03;5102166;27;45260;-75
2022/05/30 03:01:31;;;;;;;;;6.00;6.00;;;;;10.16;70.23;100761.50;5135049;27;46313;-75
2022/05/30 03:03:57;;;;;;;;;6.00;6.00;;;;;10.23;70.05;100771.28;5099870;27;45515;-75
2022/05/30 03:06:22;;;;;;;;;3.33;3.33;;;;;10.20;69.89;100779.59;5079955;28;46356;-75
2022/05/30 03:08:48;;;;;;;;;4.00;4.00;;;;;10.13;69.95;100768.00;5078816;28;45636;-74
2022/05/30 03:11:13;;;;;;;;;2.33;2.33;;;;;10.08;70.91;100770.31;5080814;28;45318;-74
2022/05/30 03:13:39;;;;;;;;;6.00;6.00;;;;;10.08;70.61;100768.50;5079689;28;47206;-74
2022/05/30 03:16:05;;;;;;;;;7.67;6.33;;;;;9.91;70.41;100749.13;5081196;27;45293;-75
2022/05/30 03:18:31;;;;;;;;;7.00;7.00;;;;;9.92;71.06;100755.28;5081144;28;45526;-75
2022/05/30 03:20:56;;;;;;;;;5.00;5.00;;;;;10.02;71.18;100771.84;5079641;28;46364;-74
2022/05/30 03:23:22;;;;;;;;;6.33;6.00;;;;;10.03;70.92;100770.03;5081095;27;46209;-74
2022/05/30 03:25:48;;;;;;;;;7.33;7.33;;;;;10.00;71.63;100768.53;5080909;28;45291;-75
2022/05/30 03:28:14;;;;;;;;;7.67;7.67;;;;;10.01;71.87;100774.66;5081171;28;45337;-74
2022/05/30 03:30:39;;;;;;;;;8.00;8.00;;;;;10.00;71.65;100759.72;5080842;27;45322;-75
2022/05/30 03:33:06;;;;;;;;;6.33;6.33;;;;;10.06;71.53;100773.16;5079118;28;45451;-75
2022/05/30 03:35:33;;;;;;;;;8.33;7.00;;;;;10.01;71.68;100764.88;5080776;27;45321;-74
2022/05/30 03:37:59;;;;;;;;;5.33;5.33;;;;;10.07;71.86;100771.31;5081067;28;45283;-74
2022/05/30 03:40:25;;;;;;;;;6.00;6.00;;;;;10.06;71.95;100775.81;5080636;28;45507;-74
2022/05/30 03:42:50;;;;;;;;;8.33;7.00;;;;;9.88;72.36;100751.31;5080574;28;46297;-74
2022/05/30 03:45:16;;;;;;;;;6.00;6.00;;;;;10.03;72.05;100785.94;5080654;28;45433;-75
2022/05/30 03:47:44;;;;;;;;;7.00;7.00;;;;;9.97;71.93;100777.66;5096372;27;45290;-74
2022/05/30 03:50:19;;;;;;;;;7.33;7.33;;;;;10.01;71.83;100788.78;5079145;28;47056;-75
2022/05/30 03:52:45;;;;;;;;;9.00;7.00;;;;;9.92;72.11;100773.84;5095888;27;47493;-75
2022/05/30 03:55:14;;;;;;;;;9.00;8.33;;;;;10.03;72.01;100784.09;5080503;28;45260;-74
2022/05/30 03:57:40;;;;;;;;;8.00;8.00;;;;;9.98;72.01;100784.63;5096203;27;45256;-74
2022/05/30 04:00:12;;;;;;;;;10.00;8.00;;;;;10.01;72.17;100796.75;5113388;27;47654;-74
2022/05/30 04:02:38;;;;;;;;;9.00;9.00;;;;;9.98;72.81;100799.72;5080192;27;45388;-74
2022/05/30 04:05:04;;;;;;;;;8.00;8.00;;;;;9.90;72.88;100784.63;5090903;27;45275;-74
2022/05/30 04:07:29;;;;;;;;;8.00;8.00;;;;;9.89;72.35;100796.25;5100903;27;45340;-74
2022/05/30 04:09:54;;;;;;;;;8.00;8.00;;;;;9.85;72.68;100793.09;5100737;27;45528;-75
2022/05/30 04:12:21;;;;;;;;;9.00;9.00;;;;;9.83;72.91;100792.47;5099207;27;48169;-75
2022/05/30 04:14:53;;;;;;;;;8.00;7.00;;;;;9.68;72.50;100772.91;5099271;27;45336;-74
2022/05/30 04:17:18;;;;;;;;;9.00;9.00;;;;;9.71;73.08;100785.84;5099417;27;45434;-74
2022/05/30 04:19:44;;;;;;;;;8.00;8.00;;;;;9.73;73.06;100791.81;5116052;27;47211;-75
2022/05/30 04:22:09;;;;;;;;;9.00;9.00;;;;;9.73;72.71;100795.28;5098837;27;46794;-74
2022/05/30 04:24:34;;;;;;;;;8.33;8.00;;;;;9.75;73.06;100787.16;5100562;27;45425;-75
2022/05/30 04:27:00;;;;;;;;;7.00;7.00;;;;;9.71;72.88;100796.44;5099218;27;45406;-74
2022/05/30 04:29:25;;;;;;;;;10.00;8.00;;;;;9.65;73.15;100791.81;5100673;27;45368;-75
2022/05/30 04:31:50;;;;;;;;;9.33;9.33;;;;;9.75;73.27;100804.91;5100358;27;45341;-75
2022/05/30 04:34:16;;;;;;;;;7.00;7.00;;;;;9.70;73.30;100808.88;5100403;27;45776;-75
2022/05/30 04:36:41;;;;;;;;;8.00;7.33;;;;;9.70;73.29;100803.56;5099008;27;45429;-75
2022/05/30 04:39:06;;;;;;;;;11.00;11.00;;;;;9.50;73.96;100787.16;5100251;27;45398;-75
2022/05/30 04:41:32;;;;;;;;;19.50;18.00;;;;;9.55;74.07;100800.75;5099952;27;45431;-75
2022/05/30 04:43:59;;;;;;;;;11.67;11.33;;;;;9.61;74.01;100807.25;5100323;27;45380;-75
2022/05/30 04:46:25;;;;;;;;;40.00;33.75;;;;;9.64;73.72;100814.03;5100388;27;45232;-75
2022/05/30 04:48:50;;;;;;;;;14.00;13.00;;;;;9.56;74.36;100798.94;5099858;27;45475;-75
2022/05/30 04:51:15;;;;;;;;;18.00;15.50;;;;;9.67;74.16;100806.56;5098651;27;46576;-74
2022/05/30 04:53:41;;;;;;;;;10.50;10.50;;;;;9.66;73.78;100804.06;5098712;27;45866;-74
2022/05/30 04:56:06;;;;;;;;;8.00;8.00;;;;;9.67;73.58;100803.09;5100161;27;45351;-75
2022/05/30 04:58:34;;;;;;;;;9.00;9.00;;;;;9.67;73.65;100806.56;5098689;27;46804;-74
2022/05/30 05:01:03;;;;;;;;;8.00;7.67;;;;;9.73;74.11;100816.50;5100164;27;45407;-74
2022/05/30 05:03:30;;;;;;;;;9.67;8.67;;;;;9.72;74.40;100812.22;5099596;27;45270;-75
2022/05/30 05:06:01;;;;;;;;;10.67;10.33;;;;;9.84;73.95;100822.47;5081433;27;45209;-74
2022/05/30 05:08:47;;;;;;;;;11.00;9.00;;;;;9.89;73.95;100816.66;5079210;27;45319;-74
2022/05/30 05:11:12;;;;;;;;;7.67;7.67;;;;;9.94;73.76;100815.16;5077874;28;46275;-74
2022/05/30 05:13:38;;;;;;;;;7.00;7.00;;;;;9.95;73.66;100805.38;5079327;28;45420;-74
2022/05/30 05:16:04;;;;;;;;;8.00;8.00;;;;;10.03;73.78;100820.47;5078301;28;45213;-74
2022/05/30 05:18:30;;;;;;;;;7.33;6.33;;;;;10.01;73.48;100819.81;5079175;28;45162;-75
2022/05/30 05:20:55;;;;;;;;;9.33;9.33;;;;;10.04;73.70;100811.50;5079233;28;45274;-74
2022/05/30 05:23:21;;;;;;;;;9.33;9.33;;;;;10.13;73.28;100821.13;5079447;28;45286;-75
2022/05/30 05:25:46;;;;;;;;;11.00;11.00;;;;;10.17;73.60;100816.28;5077993;28;45851;-74
2022/05/30 05:28:11;;;;;;;;;9.67;7.00;;;;;10.27;73.28;100827.56;5079446;27;45317;-76
2022/05/30 05:30:40;;;;;;;;;8.33;8.00;;;;;10.22;73.16;100809.47;5079136;28;45336;-74
2022/05/30 05:33:05;;;;;;;;;9.00;8.00;;;;;10.22;73.33;100809.47;5079275;28;45326;-74
2022/05/30 05:35:30;;;;;;;;;6.67;6.00;;;;;10.21;73.16;100814.97;5082719;28;45417;-74
2022/05/30 05:37:56;;;;;;;;;10.00;10.00;;;;;10.28;73.37;100809.78;5081358;28;45860;-74
2022/05/30 05:40:22;;;;;;;;;8.00;7.00;;;;;10.36;72.80;100828.38;5080944;27;45950;-75
2022/05/30 05:42:47;;;;;;;;;8.67;8.00;;;;;10.41;73.48;100833.16;5073061;28;45367;-75
2022/05/30 05:45:12;;;;;;;;;12.00;10.33;;;;;10.38;72.92;100813.06;5114977;27;45311;-75
2022/05/30 05:47:38;;;;;;;;;7.33;7.00;;;;;10.41;72.96;100823.34;5115331;27;46304;-75
2022/05/30 05:50:03;;;;;;;;;18.25;16.25;;;;;10.49;73.15;100835.81;5082293;27;45348;-75
2022/05/30 05:52:30;;;;;;;;;11.00;11.00;;;;;10.42;73.21;100816.22;5115468;27;45290;-75
2022/05/30 05:54:55;;;;;;;;;7.33;7.00;;;;;10.45;72.90;100819.38;5081351;28;45350;-75
2022/05/30 05:57:22;;;;;;;;;12.00;12.00;;;;;10.41;73.13;100807.41;5075660;27;45189;-74
2022/05/30 05:59:47;;;;;;;;;8.00;8.00;;;;;10.54;72.81;100833.47;5073964;27;46229;-75
2022/05/30 06:02:13;;;;;;;;;11.33;11.33;;;;;10.49;73.16;100814.56;5074547;28;45484;-74
2022/05/30 06:04:39;;;;;;;;;6.00;6.00;;;;;10.68;72.78;100837.25;5083610;27;45406;-74
2022/05/30 06:07:06;;;;;;;;;10.00;10.00;;;;;10.65;72.33;100829.63;5076492;27;45673;-74
2022/05/30 06:09:32;;;;;;;;;7.67;6.67;;;;;10.67;72.64;100826.78;5078060;28;47123;-74
2022/05/30 06:11:58;;;;;;;;;8.33;7.33;;;;;10.77;72.46;100843.34;5079664;27;45409;-75
2022/05/30 06:14:24;;;;;;;;;10.00;8.67;;;;;10.73;72.61;100834.91;5082354;27;45352;-74
2022/05/30 06:16:49;;;;;;;;;61.75;49.00;;;;;10.83;72.35;100839.16;5076471;27;45347;-74
2022/05/30 06:19:15;;;;;;;;;96.50;83.50;;;;;10.71;72.83;100807.66;5079168;27;45188;-75
2022/05/30 06:21:40;;;;;;;;;25.50;23.75;;;;;11.03;72.27;100842.25;5081917;27;45368;-76
2022/05/30 06:24:07;;;;;;;;;23.00;21.00;;;;;11.02;71.92;100824.63;5079668;27;45237;-79
2022/05/30 06:26:32;;;;;;;;;23.00;23.00;;;;;11.20;72.08;100839.47;5079243;27;45624;-74
2022/05/30 06:28:58;;;;;;;;;77.00;57.75;;;;;11.28;71.91;100841.28;5075403;28;45420;-74
2022/05/30 06:31:27;;;;;;;;;37.25;32.25;;;;;11.33;72.07;100841.56;5079420;27;45451;-74
2022/05/30 06:33:53;;;;;;;;;12.33;12.33;;;;;11.35;71.50;100835.03;5081843;27;45346;-74
2022/05/30 06:36:22;;;;;;;;;17.33;14.67;;;;;11.46;71.45;100836.47;5081791;27;45531;-74
2022/05/30 06:38:48;;;;;;;;;50.25;38.75;;;;;11.54;71.35;100848.06;5081565;28;46066;-74
2022/05/30 06:41:22;;;;;;;;;56.75;43.00;;;;;11.61;71.69;100836.53;5081298;27;45411;-76
2022/05/30 06:43:51;;;;;;;;;33.25;28.25;;;;;11.72;71.20;100845.09;5097152;27;45456;-74
2022/05/30 06:46:17;;;;;;;;;52.00;41.00;;;;;11.78;70.96;100846.19;5081499;27;45323;-74
2022/05/30 06:48:43;;;;;;;;;18.33;17.00;;;;;11.86;70.55;100856.81;5079853;28;48089;-74
2022/05/30 06:51:11;;;;;;;;;11.33;9.67;;;;;11.94;70.65;100850.56;5081625;27;45159;-77
2022/05/30 06:53:37;;;;;;;;;22.75;20.25;;;;;11.99;70.17;100853.50;5097276;27;45251;-75
2022/05/30 06:56:17;;;;;;;;;9.33;7.00;;;;;12.07;70.04;100855.31;5081426;27;45298;-74
2022/05/30 06:58:44;;;;;;;;;11.67;11.00;;;;;12.11;69.76;100852.09;5096854;27;48370;-75
2022/05/30 07:01:10;;;;;;;;;19.00;17.00;;;;;12.09;69.63;100840.78;5080824;28;45235;-75
2022/05/30 07:03:37;;;;;;;;;14.00;14.00;;;;;12.18;69.64;100838.06;5096461;27;45327;-74
2022/05/30 07:06:06;;;;;;;;;9.00;9.00;;;;;12.31;69.59;100861.41;5100407;27;45451;-74
2022/05/30 07:08:31;;;;;;;;;8.67;7.33;;;;;12.35;69.32;100850.19;5101317;27;46387;-75
2022/05/30 07:10:56;;;;;;;;;12.00;9.67;;;;;12.44;69.03;100852.75;5101143;27;45277;-75
2022/05/30 07:13:22;;;;;;;;;23.67;20.67;;;;;12.53;68.86;100856.16;5101781;27;45608;-75
2022/05/30 07:15:48;;;;;;;;;9.33;9.00;;;;;12.63;68.88;100851.34;5101417;27;45390;-75
2022/05/30 07:18:16;;;;;;;;;9.00;8.00;;;;;12.69;68.69;100842.63;5101314;27;46177;-75
2022/05/30 07:20:41;;;;;;;;;8.00;8.00;;;;;12.81;68.47;100847.50;5101098;27;45369;-75
2022/05/30 07:23:07;;;;;;;;;5.33;5.00;;;;;12.82;68.19;100833.97;5101589;27;45128;-75
2022/05/30 07:25:37;;;;;;;;;37.00;30.25;;;;;12.90;67.64;100845.56;5073747;27;45432;-75
2022/05/30 07:28:03;;;;;;;;;17.00;16.00;;;;;12.96;67.72;100850.16;5080861;27;46195;-74
2022/05/30 07:30:29;;;;;;;;;16.00;12.33;;;;;12.93;67.79;100835.31;5079544;28;45390;-75
2022/05/30 07:32:56;;;;;;;;;8.67;8.00;;;;;13.05;67.37;100849.00;5079359;28;45341;-75
2022/05/30 07:35:21;;;;;;;;;8.00;7.67;;;;;13.12;66.79;100854.41;5079157;28;46349;-72
2022/05/30 07:37:46;;;;;;;;;9.00;7.00;;;;;13.17;66.65;100845.84;5076120;27;46009;-73
2022/05/30 07:40:12;;;;;;;;;8.33;8.33;;;;;13.19;66.47;100841.97;5079809;27;45586;-73
2022/05/30 07:42:38;;;;;;;;;9.67;7.00;;;;;13.34;66.08;100846.41;5079810;27;45526;-73
2022/05/30 07:45:03;;;;;;;;;27.50;26.75;;;;;13.42;65.80;100850.81;5079462;27;45404;-73
2022/05/30 07:47:29;;;;;;;;;63.00;47.75;;;;;13.44;65.63;100844.25;5078059;27;47593;-72
2022/05/30 07:49:54;;;;;;;;;52.75;40.50;;;;;13.46;65.69;100838.72;5078004;27;45421;-72
2022/05/30 07:52:19;;;;;;;;;60.75;48.00;;;;;13.58;65.50;100852.44;5078467;27;45968;-72
2022/05/30 07:54:45;;;;;;;;;10.67;10.67;;;;;13.62;65.49;100843.03;5078130;27;45407;-72
2022/05/30 07:57:10;;;;;;;;;7.00;7.00;;;;;13.72;65.09;100842.69;5078731;27;45429;-72
2022/05/30 07:59:36;;;;;;;;;8.00;7.00;;;;;13.78;64.59;100838.41;5078745;27;45658;-72
2022/05/30 08:02:04;;;;;;;;;8.00;6.00;;;;;13.86;64.39;100840.97;5077123;28;45352;-72
2022/05/30 08:04:30;;;;;;;;;9.00;9.00;;;;;13.98;64.62;100841.25;5084252;27;45372;-72
2022/05/30 08:06:55;;;;;;;;;5.67;5.00;;;;;14.09;63.17;100842.56;5098391;27;46430;-72
2022/05/30 08:09:20;;;;;;;;;5.33;5.33;;;;;14.08;63.04;100835.56;5097295;27;45359;-72
2022/05/30 08:11:46;;;;;;;;;7.33;6.00;;;;;14.22;62.74;100847.97;5098642;27;45280;-72
2022/05/30 08:14:11;;;;;;;;;5.00;5.00;;;;;14.31;63.00;100856.66;5114530;27;46053;-72
2022/05/30 08:16:37;;;;;;;;;6.00;5.00;;;;;14.39;62.38;100851.19;5100622;27;45302;-72
2022/05/30 08:19:07;;;;;;;;;1.67;1.67;;;;;14.47;62.02;100849.38;5100599;27;45407;-72
2022/05/30 08:21:33;;;;;;;;;5.00;5.00;;;;;14.60;61.23;100857.47;5100720;27;45282;-72
2022/05/30 08:23:58;;;;;;;;;5.00;5.00;;;;;14.59;60.69;100836.25;5100540;27;45230;-72
2022/05/30 08:26:23;;;;;;;;;54.75;43.25;;;;;14.74;60.23;100839.63;5100196;27;45236;-72
2022/05/30 08:28:49;;;;;;;;;14.67;13.67;;;;;14.81;60.28;100844.22;5100460;27;45293;-72
2022/05/30 08:31:16;;;;;;;;;5.00;5.00;;;;;14.88;59.43;100840.53;5100743;27;45240;-72
2022/05/30 08:33:42;;;;;;;;;6.00;5.00;;;;;15.04;58.24;100848.38;5100278;27;45271;-72
2022/05/30 08:36:10;;;;;;;;;34.67;31.33;;;;;15.15;57.40;100853.19;5098943;27;47242;-71
2022/05/30 08:38:37;;;;;;;;;7.00;7.00;;;;;15.16;57.03;100836.06;5100422;27;45410;-72
2022/05/30 08:43:52;;;;;;;;;30.33;28.00;;;;;15.20;57.11;100847.22;5099998;27;45240;-71
2022/05/30 08:46:32;;;;;;;;;6.33;6.33;;;;;15.23;57.26;100846.78;5100255;27;46166;-72
2022/05/30 08:49:22;;;;;;;;;4.00;4.00;;;;;15.24;57.07;100841.22;5100021;27;45407;-72
2022/05/30 08:52:18;;;;;;;;;4.33;4.33;;;;;15.32;56.72;100837.53;5081465;27;45365;-72
2022/05/30 08:55:36;;;;;;;;;17.00;14.67;;;;;15.40;56.62;100841.88;5079412;27;45461;-72
2022/05/30 08:58:10;;;;;;;;;26.00;26.00;;;;;15.35;54.55;100838.97;5077910;28;48174;-72
2022/05/30 09:00:44;;;;;;;;;78.50;63.50;;;;;15.38;55.03;100831.38;5078779;27;45441;-72
2022/05/30 09:03:20;;;;;;;;;7.67;6.00;;;;;15.47;55.34;100832.00;5079687;27;45388;-72
2022/05/30 09:05:59;;;;;;;;;4.00;4.00;;;;;15.60;55.07;100836.56;5077736;28;46296;-72
2022/05/30 09:08:28;;;;;;;;;4.00;4.00;;;;;15.67;54.02;100839.22;5114229;27;48558;-72
2022/05/30 09:10:58;;;;;;;;;4.67;3.67;;;;;15.62;54.41;100820.25;5083018;28;45421;-72
2022/05/30 09:13:34;;;;;;;;;3.33;3.33;;;;;15.64;54.41;100836.97;5083202;27;45381;-72
2022/05/30 09:16:03;;;;;;;;;3.67;3.67;;;;;15.58;54.07;100837.78;5083141;27;45331;-72
2022/05/30 09:18:41;;;;;;;;;5.00;4.67;;;;;15.59;54.21;100829.53;5082701;27;46031;-72
2022/05/30 09:21:08;;;;;;;;;16.33;14.33;;;;;15.69;53.33;100831.81;5083014;28;45313;-72
2022/05/30 09:23:33;;;;;;;;;23.67;21.67;;;;;15.76;54.39;100821.91;5081713;28;45317;-74
2022/05/30 09:26:03;;;;;;;;;7.33;6.67;;;;;15.93;56.05;100829.53;5081371;28;46129;-74
2022/05/30 09:28:35;;;;;;;;;13.67;13.33;;;;;16.18;54.96;100833.44;5082815;27;45506;-72
2022/05/30 09:31:08;;;;;;;;;16.00;14.00;;;;;16.39;55.33;100837.72;5082866;27;45257;-72
2022/05/30 09:33:38;;;;;;;;;19.33;17.67;;;;;16.58;53.54;100836.00;5082637;27;45341;-72
2022/05/30 09:36:19;;;;;;;;;17.33;17.00;;;;;16.73;53.99;100841.09;5082664;27;45429;-73
2022/05/30 09:38:49;;;;;;;;;6.00;6.00;;;;;16.81;53.49;100837.34;5082548;27;45586;-72
2022/05/30 09:41:21;;;;;;;;;18.33;16.67;;;;;16.93;52.97;100832.13;5080937;28;45520;-74
2022/05/30 09:43:56;;;;;;;;;55.75;43.00;;;;;17.04;52.72;100817.22;5082641;28;45248;-72
2022/05/30 09:46:30;;;;;;;;;18.33;17.33;;;;;17.19;52.18;100826.84;5081276;28;45236;-72
2022/05/30 09:49:14;;;;;;;;;12.33;12.33;;;;;17.27;50.95;100822.03;5082233;27;46476;-72
2022/05/30 09:51:46;;;;;;;;;65.75;52.25;;;;;17.28;51.69;100815.66;5082382;27;45214;-72
2022/05/30 09:54:24;;;;;;;;;17.67;15.33;;;;;17.44;50.37;100809.94;5098037;27;45425;-72
2022/05/30 09:56:53;;;;;;;;;28.33;24.67;;;;;17.57;50.79;100811.72;5080710;28;46468;-72
2022/05/30 09:59:31;;;;;;;;;11.00;11.00;;;;;17.69;50.45;100804.56;5080099;27;46383;-72
2022/05/30 10:01:57;;;;;;;;;17.00;13.67;;;;;17.53;49.61;100761.09;5074296;27;45523;-72
2022/05/30 10:04:41;;;;;;;;;8.00;8.00;;;;;17.85;49.48;100805.06;5071953;27;45429;-72
2022/05/30 10:07:16;;;;;;;;;44.00;33.00;;;;;17.90;48.98;100803.34;5102201;27;45297;-72
2022/05/30 10:10:19;;;;;;;;;5.00;5.00;;;;;17.95;48.06;100794.63;5101009;27;47359;-71
2022/05/30 10:12:56;;;;;;;;;3.00;3.00;;;;;18.01;47.98;100799.09;5089965;27;45446;-72
2022/05/30 10:15:27;;;;;;;;;3.67;2.33;;;;;18.10;48.95;100802.34;5081942;28;45389;-72
2022/05/30 10:17:56;;;;;;;;;4.00;4.00;;;;;18.20;48.96;100801.00;5079916;28;46086;-73
2022/05/30 10:20:41;;;;;;;;;18.00;17.00;;;;;18.27;47.20;100802.59;5079728;28;48513;-72
2022/05/30 10:30:21;;;;;;;;;8.33;6.33;;;;;18.85;44.56;100793.41;4962183;28;45414;-74
2022/05/30 10:33:11;;;;;;;;;2.00;2.00;;;;;19.02;41.72;100807.84;5064304;27;46177;-74
2022/05/30 10:36:24;;;;;;;;;2.67;2.67;;;;;19.13;44.01;100800.06;5061588;28;45442;-73
2022/05/30 10:39:17;;;;;;;;;4.00;4.00;;;;;19.31;44.24;100801.84;5025941;28;45393;-73
2022/05/30 10:42:02;;;;;;;;;4.67;3.00;;;;;19.51;44.40;100801.53;5038735;28;45290;-74
2022/05/30 10:44:32;;;;;;;;;3.33;3.00;;;;;19.77;43.59;100799.44;5063133;27;46714;-76
2022/05/30 10:47:12;;;;;;;;;3.00;3.00;;;;;19.90;43.08;100789.44;5061429;28;45362;-74
2022/05/30 10:49:41;;;;;;;;;22.67;19.00;;;;;19.87;43.65;100785.34;5059750;28;45271;-74
2022/05/30 10:52:41;;;;;;;;;3.00;2.33;;;;;19.90;42.94;100801.06;5064882;28;45362;-78
2022/05/30 10:55:31;;;;;;;;;3.00;3.00;;;;;19.86;42.60;100782.88;5094928;27;45465;-73
2022/05/30 10:58:02;;;;;;;;;8.33;6.00;;;;;20.01;42.80;100793.22;5081304;27;45904;-74
2022/05/30 11:00:40;;;;;;;;;29.33;26.33;;;;;20.16;42.62;100798.97;5081516;27;45341;-74
2022/05/30 11:03:43;;;;;;;;;82.00;73.25;;;;;20.27;41.33;100799.16;5081148;28;45538;-74
2022/05/30 11:06:18;;;;;;;;;3.67;3.00;;;;;20.41;41.69;100797.84;5079770;28;47158;-74
2022/05/30 11:09:04;;;;;;;;;34.00;30.33;;;;;20.55;41.49;100794.88;5066325;28;45473;-74
2022/05/30 11:11:42;;;;;;;;;12.67;11.00;;;;;20.74;42.02;100792.78;5060656;28;45325;-73
2022/05/30 11:14:36;;;;;;;;;2.33;2.33;;;;;21.11;42.18;100794.28;5060815;28;45338;-75
2022/05/30 11:17:38;;;;;;;;;3.00;3.00;;;;;21.43;40.31;100803.72;5060749;28;46336;-72
2022/05/30 11:20:10;;;;;;;;;4.00;4.00;;;;;21.65;39.73;100806.50;5060420;28;45356;-73
2022/05/30 11:22:47;;;;;;;;;3.33;3.33;;;;;21.64;38.21;100801.34;5060851;28;45268;-73
2022/05/30 11:25:16;;;;;;;;;4.00;3.00;;;;;21.48;38.67;100800.25;5059339;28;45818;-75
2022/05/30 11:28:02;;;;;;;;;39.67;33.33;;;;;21.41;39.15;100798.56;5060167;28;45994;-74
2022/05/30 11:31:01;;;;;;;;;42.00;33.67;;;;;21.63;37.20;100802.38;5059435;28;45344;-73
2022/05/30 11:33:32;;;;;;;;;10.33;9.33;;;;;21.73;37.02;100804.44;5099169;27;45236;-74
2022/05/30 11:36:13;;;;;;;;;9.33;9.00;;;;;21.86;38.03;100789.78;5100814;27;45234;-73
2022/05/30 11:38:56;;;;;;;;;9.00;7.00;;;;;22.01;37.70;100803.53;5100834;27;45407;-73
2022/05/30 11:41:37;;;;;;;;;34.00;29.67;;;;;22.04;37.29;100796.78;5100711;27;45279;-73
2022/05/30 11:44:27;;;;;;;;;3.67;3.67;;;;;22.22;38.51;100798.38;5098611;27;45409;-73
2022/05/30 11:47:08;;;;;;;;;1.67;1.67;;;;;22.31;37.65;100791.44;5078731;27;45502;-73
2022/05/30 11:49:54;;;;;;;;;6.00;6.00;;;;;22.50;36.78;100788.41;5080511;27;46411;-73